CYKD

Aklavik Airport

Aklavik, , Canada
METAR CYKD 151900Z 04004KT 360V060 15SM FEW038TCU FEW150 BKN240 21/11 A2966 RMK TCU1AC1CI3 TCU S-W/CB DVLPG/0.0/LAST STFD OBS/NXT 161300Z SLP045 DENSITY ALT 1100FT
Observed Flight Rules
Jul-15 @ 19:00 UTC (2 hours ago) Visual Flight Rules
Wind Visibility Clouds
40° at 4 knots 15 miles
  • Few at 3,800' AGL
  • Few at 15,000' AGL
  • Broken at 24,000' AGL
Temperatures Readings
Current 21°C / 70°F
Dewpoint 11°C / 52°F
Humidity 53%
Altimeter 29.66" Hg
Pressure 1004.5 hPa
Elevation 7
METAR CYKD 151900Z 04004KT 360V060 15SM FEW038TCU FEW150 BKN240 21/11 A2966 RMK TCU1AC1CI3 TCU S-W/CB DVLPG/0.0/LAST STFD OBS/NXT 161300Z SLP045 DENSITY ALT 1100FT
Observed Flight Rules
Jul-15 @ 19:00 UTC
(2 hours ago)
VFR
Wind Visibility
40° at 4 knots 15 miles
Clouds
  • Few at 3,800' AGL
  • Few at 15,000' AGL
  • Broken at 24,000' AGL
Temperature Dewpoint
21°C / 70°F 11°C / 52°F
Humidity Altimeter Pressure
53% 29.66" Hg 1004.5 hPa